Time;durP1;ratioP1;P1;durP2;ratioP2;P2;SDS_P1;SDS_P2;PMS_P1;PMS_P2;Temp;Humidity;BMP_temperature;BMP_pressure;BME280_temperature;BME280_humidity;BME280_pressure;Samples;Min_cycle;Max_cycle;Signal;HPM_P1;HPM_P2
2021/05/22 00:00:36;;;;;;;;;;;;;;;10.79;71.19;95488.72;3604674;39;20129;-54
2021/05/22 00:03:04;;;;;;;;;;;;;;;10.73;70.91;95485.31;3591484;39;20317;-53
2021/05/22 00:05:32;;;;;;;;;;;;;;;10.65;71.55;95481.38;3595211;39;19940;-54
2021/05/22 00:07:59;;;;;;;;;;;;;;;10.61;71.36;95494.28;3593388;39;20696;-54
2021/05/22 00:10:27;;;;;;;;;;;;;;;10.59;71.66;95477.94;3597327;39;19957;-54
2021/05/22 00:12:54;;;;;;;;;;;;;;;10.51;71.48;95483.00;3594887;39;19940;-54
2021/05/22 00:15:22;;;;;;;;;;;;;;;10.43;71.93;95489.59;3594172;39;19939;-54
2021/05/22 00:17:49;;;;;;;;;;;;;;;10.36;72.55;95489.81;3592361;39;20299;-53
2021/05/22 00:20:17;;;;;;;;;;;;;;;10.29;72.17;95484.00;3593579;39;20792;-54
2021/05/22 00:22:45;;;;;;;;;;;;;;;10.25;72.88;95480.34;3590594;39;19936;-54
2021/05/22 00:25:13;;;;;;;;;;;;;;;10.18;73.00;95483.22;3593652;39;19936;-53
2021/05/22 00:27:41;;;;;;;;;;;;;;;10.24;72.92;95489.28;3591666;39;19948;-53
2021/05/22 00:30:09;;;;;;;;;;;;;;;10.24;72.94;95487.44;3575964;39;20252;-53
2021/05/22 00:32:37;;;;;;;;;;;;;;;10.12;73.43;95466.63;3593267;39;20348;-53
2021/05/22 00:35:05;;;;;;;;;;;;;;;10.19;73.18;95484.00;3592965;39;20246;-53
2021/05/22 00:37:33;;;;;;;;;;;;;;;10.12;73.41;95477.16;3582956;39;20066;-53
2021/05/22 00:40:02;;;;;;;;;;;;;;;10.04;74.10;95476.88;3592751;39;19932;-52
2021/05/22 00:42:29;;;;;;;;;;;;;;;9.98;74.04;95471.59;3591541;39;19944;-52
2021/05/22 00:45:21;;;;;;;;;;;;;;;9.96;74.08;95478.19;3593457;39;20634;-52
2021/05/22 00:47:50;;;;;;;;;;;;;;;9.92;74.49;95469.22;3591258;39;19936;-52
2021/05/22 00:50:29;;;;;;;;;;;;;;;9.85;74.40;95475.56;3592438;39;19944;-53
2021/05/22 00:52:57;;;;;;;;;;;;;;;9.83;75.21;95464.47;3590693;39;19952;-53
2021/05/22 00:55:24;;;;;;;;;;;;;;;9.79;75.43;95465.28;3591809;39;19954;-53
2021/05/22 00:57:52;;;;;;;;;;;;;;;9.77;75.17;95473.44;3600691;39;19950;-55
2021/05/22 01:00:28;;;;;;;;;;;;;;;9.76;75.23;95468.41;3593050;39;20395;-54
2021/05/22 01:02:56;;;;;;;;;;;;;;;9.72;75.94;95462.88;3601879;39;19938;-54
2021/05/22 01:05:24;;;;;;;;;;;;;;;9.74;75.98;95471.31;3594501;39;19942;-54
2021/05/22 01:07:52;;;;;;;;;;;;;;;9.74;75.63;95462.63;3602853;39;19943;-53
2021/05/22 01:10:19;;;;;;;;;;;;;;;9.74;76.00;95450.25;3601790;39;19940;-54
2021/05/22 01:12:49;;;;;;;;;;;;;;;9.75;76.20;95451.84;3605532;39;20344;-54
2021/05/22 01:15:18;;;;;;;;;;;;;;;9.75;75.79;95456.31;3604580;39;20272;-54
2021/05/22 01:17:50;;;;;;;;;;;;;;;9.74;75.87;95454.72;3593725;39;19936;-55
2021/05/22 01:20:29;;;;;;;;;;;;;;;9.73;76.46;95448.66;3594662;39;19936;-53
2021/05/22 01:22:59;;;;;;;;;;;;;;;9.73;76.20;95447.88;3604647;39;19946;-54
2021/05/22 01:25:35;;;;;;;;;;;;;;;9.74;77.04;95445.00;3602566;39;21133;-55
2021/05/22 01:28:04;;;;;;;;;;;;;;;9.74;77.14;95441.56;3594261;39;20062;-59
2021/05/22 01:30:32;;;;;;;;;;;;;;;9.78;76.62;95439.97;3594926;39;20895;-54
2021/05/22 01:33:00;;;;;;;;;;;;;;;9.79;76.45;95439.72;3605163;39;19936;-53
2021/05/22 01:35:27;;;;;;;;;;;;;;;9.84;76.58;95444.22;3596707;39;19943;-54
2021/05/22 01:37:55;;;;;;;;;;;;;;;9.84;76.56;95445.00;3603736;39;19939;-54
2021/05/22 01:40:22;;;;;;;;;;;;;;;9.84;77.09;95444.22;3594362;39;19944;-54
2021/05/22 01:42:50;;;;;;;;;;;;;;;9.86;76.34;95439.44;3593797;39;19948;-53
2021/05/22 01:45:29;;;;;;;;;;;;;;;9.94;76.08;95444.22;3603752;39;19950;-54
2021/05/22 01:47:57;;;;;;;;;;;;;;;10.03;75.34;95441.06;3597223;39;20676;-54
2021/05/22 01:50:26;;;;;;;;;;;;;;;10.07;75.72;95436.84;3604736;39;20366;-54
2021/05/22 01:52:54;;;;;;;;;;;;;;;10.10;75.74;95425.75;3595686;39;19944;-54
2021/05/22 01:55:22;;;;;;;;;;;;;;;10.10;75.17;95425.75;3594991;39;19942;-53
2021/05/22 01:57:50;;;;;;;;;;;;;;;10.14;75.29;95427.63;3604105;39;19940;-53
2021/05/22 02:00:18;;;;;;;;;;;;;;;10.18;74.81;95427.88;3595224;39;19936;-53
2021/05/22 02:03:08;;;;;;;;;;;;;;;10.31;74.01;95421.25;3605485;39;19947;-53
2021/05/22 02:05:38;;;;;;;;;;;;;;;10.41;73.39;95418.63;3604385;39;20158;-52
2021/05/22 02:08:07;;;;;;;;;;;;;;;10.48;72.98;95425.50;3604092;39;19939;-53
2021/05/22 02:10:35;;;;;;;;;;;;;;;10.53;72.84;95420.19;3602067;39;19940;-52
2021/05/22 02:13:03;;;;;;;;;;;;;;;10.59;72.56;95422.56;3594279;39;20409;-53
2021/05/22 02:15:31;;;;;;;;;;;;;;;10.64;72.39;95413.06;3604737;39;19973;-52
2021/05/22 02:18:01;;;;;;;;;;;;;;;10.64;72.38;95415.69;3605963;39;20311;-52
2021/05/22 02:20:30;;;;;;;;;;;;;;;10.64;72.28;95424.41;3605482;39;19943;-52
2021/05/22 02:22:58;;;;;;;;;;;;;;;10.70;71.88;95412.78;3603372;39;20160;-52
2021/05/22 02:25:26;;;;;;;;;;;;;;;10.70;71.68;95406.72;3594926;39;20516;-52
2021/05/22 02:27:57;;;;;;;;;;;;;;;10.72;71.46;95410.66;3603429;39;19931;-53
2021/05/22 02:30:25;;;;;;;;;;;;;;;10.69;71.62;95405.16;3604047;39;19936;-54
2021/05/22 02:32:54;;;;;;;;;;;;;;;10.66;71.31;95397.75;3594005;39;19954;-54
2021/05/22 02:35:22;;;;;;;;;;;;;;;10.69;71.26;95405.91;3593867;39;19936;-53
2021/05/22 02:37:51;;;;;;;;;;;;;;;10.67;70.93;95405.41;3604968;39;19940;-53
2021/05/22 02:40:23;;;;;;;;;;;;;;;10.67;71.17;95400.13;3605330;39;19936;-52
2021/05/22 02:42:54;;;;;;;;;;;;;;;10.65;71.46;95409.38;3603239;39;19950;-52
2021/05/22 02:45:24;;;;;;;;;;;;;;;10.62;71.39;95405.44;3593904;39;19940;-53
2021/05/22 02:47:53;;;;;;;;;;;;;;;10.63;71.38;95411.47;3596000;39;19936;-53
2021/05/22 02:50:21;;;;;;;;;;;;;;;10.64;71.16;95403.31;3593302;39;19944;-53
2021/05/22 02:52:49;;;;;;;;;;;;;;;10.69;70.84;95405.91;3595383;39;19942;-52
2021/05/22 02:55:17;;;;;;;;;;;;;;;10.71;70.35;95408.28;3593716;39;20204;-53
2021/05/22 02:57:45;;;;;;;;;;;;;;;10.75;70.29;95409.34;3601236;39;19936;-52
2021/05/22 03:00:13;;;;;;;;;;;;;;;10.84;70.35;95407.72;3585911;39;19943;-54
2021/05/22 03:02:41;;;;;;;;;;;;;;;10.86;70.11;95404.81;3604381;39;19936;-53
2021/05/22 03:05:10;;;;;;;;;;;;;;;10.89;70.12;95404.28;3583609;39;19944;-52
2021/05/22 03:07:37;;;;;;;;;;;;;;;10.91;69.62;95394.22;3594537;39;19966;-53
2021/05/22 03:10:06;;;;;;;;;;;;;;;10.93;69.58;95394.75;3602441;39;19935;-53
2021/05/22 03:12:35;;;;;;;;;;;;;;;10.95;69.22;95384.72;3602805;39;19943;-52
2021/05/22 03:15:04;;;;;;;;;;;;;;;10.96;69.83;95386.31;3603033;39;19943;-52
2021/05/22 03:17:32;;;;;;;;;;;;;;;10.95;68.74;95382.09;3592682;39;19944;-52
2021/05/22 03:19:59;;;;;;;;;;;;;;;11.01;68.84;95383.66;3594271;39;20281;-52
2021/05/22 03:22:26;;;;;;;;;;;;;;;11.01;69.27;95386.28;3605294;39;19935;-53
2021/05/22 03:24:55;;;;;;;;;;;;;;;10.95;69.40;95379.44;3603445;39;19942;-53
2021/05/22 03:27:22;;;;;;;;;;;;;;;10.91;69.16;95392.41;3602132;39;19943;-52
2021/05/22 03:29:50;;;;;;;;;;;;;;;10.92;69.19;95393.97;3587343;39;20304;-53
2021/05/22 03:32:17;;;;;;;;;;;;;;;10.88;68.86;95390.28;3603416;39;19950;-52
2021/05/22 03:34:45;;;;;;;;;;;;;;;10.90;68.64;95385.53;3596564;39;19985;-53
2021/05/22 03:37:12;;;;;;;;;;;;;;;10.96;68.73;95390.78;3592951;39;20231;-53
2021/05/22 03:39:40;;;;;;;;;;;;;;;10.97;68.89;95385.25;3602242;39;19936;-52
2021/05/22 03:42:08;;;;;;;;;;;;;;;10.99;68.59;95393.69;3592529;39;19935;-53
2021/05/22 03:44:35;;;;;;;;;;;;;;;11.02;68.20;95398.41;3577675;39;19954;-56
2021/05/22 03:47:03;;;;;;;;;;;;;;;11.04;68.36;95398.94;3585349;39;20537;-56
2021/05/22 03:49:31;;;;;;;;;;;;;;;11.11;67.41;95395.22;3594766;39;19936;-53
2021/05/22 03:51:58;;;;;;;;;;;;;;;11.16;67.95;95401.25;3602675;39;19946;-53
2021/05/22 03:54:26;;;;;;;;;;;;;;;11.32;67.40;95401.97;3593779;39;19947;-53
2021/05/22 03:56:54;;;;;;;;;;;;;;;11.87;66.21;95392.34;3602016;39;20818;-53
2021/05/22 03:59:21;;;;;;;;;;;;;;;12.50;64.88;95391.53;3604036;39;19947;-53
2021/05/22 04:01:49;;;;;;;;;;;;;;;12.77;63.46;95395.50;3603937;39;19947;-53
2021/05/22 04:04:16;;;;;;;;;;;;;;;13.05;62.43;95395.69;3603320;39;19942;-53
2021/05/22 04:06:44;;;;;;;;;;;;;;;13.35;62.01;95402.47;3605703;39;19939;-55
2021/05/22 04:09:11;;;;;;;;;;;;;;;14.34;59.39;95399.13;3603516;39;19936;-55
2021/05/22 04:11:39;;;;;;;;;;;;;;;15.28;54.89;95400.81;3600224;39;19947;-53
2021/05/22 04:14:06;;;;;;;;;;;;;;;15.27;54.98;95400.06;3604297;39;19948;-54
2021/05/22 04:16:34;;;;;;;;;;;;;;;15.88;52.97;95402.47;3602424;39;19949;-53
2021/05/22 04:19:03;;;;;;;;;;;;;;;16.38;51.57;95396.19;3593153;39;20472;-54
2021/05/22 04:21:30;;;;;;;;;;;;;;;15.75;53.33;95397.94;3593945;39;19942;-53
2021/05/22 04:23:58;;;;;;;;;;;;;;;14.87;54.67;95403.25;3593905;39;19954;-54
2021/05/22 04:26:25;;;;;;;;;;;;;;;15.67;53.12;95418.88;3602528;39;19947;-54
2021/05/22 04:28:53;;;;;;;;;;;;;;;16.39;52.12;95404.97;3601755;39;20305;-54
2021/05/22 04:31:20;;;;;;;;;;;;;;;16.94;51.03;95409.13;3594063;39;19944;-54
2021/05/22 04:33:48;;;;;;;;;;;;;;;17.08;49.93;95409.00;3604361;39;19935;-54
2021/05/22 04:36:15;;;;;;;;;;;;;;;17.03;49.50;95395.84;3593862;39;20200;-54
2021/05/22 04:38:43;;;;;;;;;;;;;;;17.48;48.88;95400.94;3603886;39;19947;-54
2021/05/22 04:41:11;;;;;;;;;;;;;;;17.86;47.97;95398.75;3586044;39;19943;-54
2021/05/22 04:43:38;;;;;;;;;;;;;;;18.25;47.90;95394.31;3603999;39;19947;-55
2021/05/22 04:46:06;;;;;;;;;;;;;;;18.58;46.83;95396.41;3602165;39;19943;-55
2021/05/22 04:48:33;;;;;;;;;;;;;;;19.17;45.30;95405.59;3592418;39;19936;-54
2021/05/22 04:51:04;;;;;;;;;;;;;;;19.70;45.73;95407.94;3600923;39;19961;-54
2021/05/22 04:53:32;;;;;;;;;;;;;;;20.11;43.32;95411.72;3603749;39;19948;-54
2021/05/22 04:56:00;;;;;;;;;;;;;;;20.53;42.27;95429.59;3602792;39;19943;-54
2021/05/22 04:58:27;;;;;;;;;;;;;;;20.87;41.99;95428.41;3602876;39;19940;-54
2021/05/22 05:00:55;;;;;;;;;;;;;;;20.72;40.94;95407.63;3593192;39;19942;-55
2021/05/22 05:03:23;;;;;;;;;;;;;;;20.54;40.78;95402.44;3604069;39;19938;-54
2021/05/22 05:05:50;;;;;;;;;;;;;;;19.40;42.52;95407.97;3603021;39;19936;-54
2021/05/22 05:08:20;;;;;;;;;;;;;;;18.75;43.81;95417.75;3599969;39;19982;-54
2021/05/22 05:10:48;;;;;;;;;;;;;;;18.84;44.88;95422.25;3599750;39;19953;-54
2021/05/22 05:13:16;;;;;;;;;;;;;;;18.37;44.28;95407.00;3602160;39;19974;-54
2021/05/22 05:15:44;;;;;;;;;;;;;;;18.32;45.00;95412.53;3602295;39;19939;-54
2021/05/22 05:18:11;;;;;;;;;;;;;;;18.09;44.77;95416.16;3603153;39;19950;-54
2021/05/22 05:20:39;;;;;;;;;;;;;;;17.88;44.87;95412.56;3603339;39;20196;-54
2021/05/22 05:23:06;;;;;;;;;;;;;;;17.70;45.25;95404.53;3593600;39;19954;-54
2021/05/22 05:25:34;;;;;;;;;;;;;;;17.56;45.76;95395.91;3593544;39;19952;-53
2021/05/22 05:28:01;;;;;;;;;;;;;;;17.37;45.90;95394.34;3590867;39;19944;-54
2021/05/22 05:30:29;;;;;;;;;;;;;;;17.18;47.22;95408.72;3604310;39;19940;-54
2021/05/22 05:32:56;;;;;;;;;;;;;;;16.97;47.31;95416.53;3593803;39;20016;-54
2021/05/22 05:35:24;;;;;;;;;;;;;;;16.72;47.54;95417.94;3604258;39;20350;-53
2021/05/22 05:37:52;;;;;;;;;;;;;;;16.68;48.43;95423.13;3585574;39;19961;-54
2021/05/22 05:40:20;;;;;;;;;;;;;;;16.77;47.84;95415.16;3606403;39;19940;-53
2021/05/22 05:42:47;;;;;;;;;;;;;;;16.73;47.74;95408.88;3594487;39;19940;-53
2021/05/22 05:45:15;;;;;;;;;;;;;;;16.69;47.28;95402.56;3603401;39;19946;-53
2021/05/22 05:47:42;;;;;;;;;;;;;;;16.57;47.39;95409.25;3601585;39;19942;-53
2021/05/22 05:50:12;;;;;;;;;;;;;;;16.49;47.80;95402.03;3604971;39;19942;-53
2021/05/22 05:52:40;;;;;;;;;;;;;;;16.26;47.86;95402.06;3577393;39;19936;-53
2021/05/22 05:55:08;;;;;;;;;;;;;;;16.25;48.84;95408.50;3604581;39;19942;-59
2021/05/22 05:57:35;;;;;;;;;;;;;;;16.39;48.77;95404.97;3601755;39;19950;-53
2021/05/22 06:00:04;;;;;;;;;;;;;;;16.51;48.03;95391.88;3594501;39;19940;-54
2021/05/22 06:02:32;;;;;;;;;;;;;;;16.51;48.19;95386.53;3602764;39;19932;-54
2021/05/22 06:04:59;;;;;;;;;;;;;;;16.51;48.28;95397.19;3605551;39;19944;-53
2021/05/22 06:07:27;;;;;;;;;;;;;;;16.53;48.70;95402.19;3585607;39;20287;-54
2021/05/22 06:09:55;;;;;;;;;;;;;;;16.56;48.21;95394.38;3601645;39;19940;-53
2021/05/22 06:12:22;;;;;;;;;;;;;;;16.63;47.52;95385.94;3604679;39;19936;-53
2021/05/22 06:14:53;;;;;;;;;;;;;;;16.70;47.34;95380.97;3605557;39;20015;-54
2021/05/22 06:17:21;;;;;;;;;;;;;;;16.79;47.08;95382.88;3603873;39;19952;-53
2021/05/22 06:19:48;;;;;;;;;;;;;;;16.79;46.92;95391.69;3604226;39;19953;-53
2021/05/22 06:22:16;;;;;;;;;;;;;;;16.74;48.00;95408.56;3591165;39;19953;-54
2021/05/22 06:24:44;;;;;;;;;;;;;;;16.58;47.47;95397.53;3595209;39;19939;-55
2021/05/22 06:27:11;;;;;;;;;;;;;;;16.66;47.09;95396.00;3588419;39;19943;-53
2021/05/22 06:29:39;;;;;;;;;;;;;;;16.87;47.33;95390.91;3594557;39;19943;-53
2021/05/22 06:32:07;;;;;;;;;;;;;;;17.02;46.71;95388.94;3603184;39;19967;-53
2021/05/22 06:34:35;;;;;;;;;;;;;;;17.21;46.66;95402.00;3586786;39;20344;-53
2021/05/22 06:37:02;;;;;;;;;;;;;;;17.18;44.86;95399.94;3594734;39;19939;-53
2021/05/22 06:39:30;;;;;;;;;;;;;;;17.18;45.77;95398.06;3592722;39;20282;-53
2021/05/22 06:41:57;;;;;;;;;;;;;;;17.25;44.74;95402.94;3601445;39;19977;-53
2021/05/22 06:44:29;;;;;;;;;;;;;;;17.09;45.07;95407.91;3595236;39;19958;-53
2021/05/22 06:46:57;;;;;;;;;;;;;;;16.81;44.34;95415.31;3604984;39;20200;-53
2021/05/22 06:49:24;;;;;;;;;;;;;;;16.57;45.33;95424.47;3602971;39;20174;-53
2021/05/22 06:51:52;;;;;;;;;;;;;;;16.47;46.01;95438.06;3603238;39;19944;-53
2021/05/22 06:54:19;;;;;;;;;;;;;;;16.25;45.92;95443.09;3602222;39;19944;-53
2021/05/22 06:56:47;;;;;;;;;;;;;;;16.07;46.81;95436.88;3600882;39;20049;-54
2021/05/22 06:59:15;;;;;;;;;;;;;;;15.73;47.63;95432.81;3582265;39;19948;-53
2021/05/22 07:01:42;;;;;;;;;;;;;;;15.63;48.11;95443.69;3601753;39;19936;-54
2021/05/22 07:04:09;;;;;;;;;;;;;;;15.40;48.42;95454.25;3601259;39;19942;-54
2021/05/22 07:06:37;;;;;;;;;;;;;;;15.31;48.64;95443.56;3593175;39;19947;-54
2021/05/22 07:09:06;;;;;;;;;;;;;;;15.28;49.50;95443.34;3592081;39;19944;-54
2021/05/22 07:11:35;;;;;;;;;;;;;;;15.26;49.42;95446.31;3593365;39;19942;-54
2021/05/22 07:14:03;;;;;;;;;;;;;;;15.19;49.02;95438.72;3604862;39;19943;-54
2021/05/22 07:16:50;;;;;;;;;;;;;;;14.93;48.91;95441.09;3596746;39;19948;-54
2021/05/22 07:19:20;;;;;;;;;;;;;;;14.88;49.49;95441.19;3594519;39;19950;-54
2021/05/22 07:21:50;;;;;;;;;;;;;;;14.90;50.65;95437.16;3599764;39;20815;-55
2021/05/22 07:24:18;;;;;;;;;;;;;;;14.90;49.74;95439.81;3598356;39;19948;-54
2021/05/22 07:26:45;;;;;;;;;;;;;;;14.90;50.03;95441.69;3600513;39;19947;-54
2021/05/22 07:29:13;;;;;;;;;;;;;;;14.87;51.25;95445.72;3602318;39;20170;-53
2021/05/22 07:31:42;;;;;;;;;;;;;;;14.83;50.88;95449.28;3603795;39;19936;-54
2021/05/22 07:34:10;;;;;;;;;;;;;;;14.79;51.62;95437.66;3593075;39;19944;-54
2021/05/22 07:36:38;;;;;;;;;;;;;;;14.60;51.49;95441.13;3592993;39;19943;-54
2021/05/22 07:39:09;;;;;;;;;;;;;;;14.56;52.75;95453.44;3598950;39;19936;-56
2021/05/22 07:41:41;;;;;;;;;;;;;;;14.46;52.48;95452.50;3585537;39;19970;-55
2021/05/22 07:44:09;;;;;;;;;;;;;;;14.35;52.90;95451.09;3590120;39;20019;-55
2021/05/22 07:46:36;;;;;;;;;;;;;;;14.26;53.43;95450.19;3599879;39;20274;-54
2021/05/22 07:49:04;;;;;;;;;;;;;;;14.20;53.69;95451.38;3597774;39;20035;-54
2021/05/22 07:51:32;;;;;;;;;;;;;;;14.10;54.37;95449.66;3601310;39;20270;-54
2021/05/22 07:53:59;;;;;;;;;;;;;;;14.04;54.16;95456.13;3599419;39;19943;-54
2021/05/22 07:56:27;;;;;;;;;;;;;;;13.91;54.27;95462.94;3599613;39;20046;-53
2021/05/22 07:58:54;;;;;;;;;;;;;;;13.86;55.74;95460.34;3589961;39;19936;-55
2021/05/22 08:01:22;;;;;;;;;;;;;;;13.82;56.84;95471.56;3586581;39;20861;-54
2021/05/22 08:03:49;;;;;;;;;;;;;;;13.80;56.63;95457.00;3592465;39;19967;-54
2021/05/22 08:06:17;;;;;;;;;;;;;;;13.76;57.94;95456.78;3590103;39;19950;-54
2021/05/22 08:08:46;;;;;;;;;;;;;;;13.63;57.98;95454.84;3594250;39;19943;-54
2021/05/22 08:11:14;;;;;;;;;;;;;;;13.53;59.38;95453.16;3599272;39;19947;-60
2021/05/22 08:13:41;;;;;;;;;;;;;;;13.41;60.44;95455.41;3588570;39;19993;-54
2021/05/22 08:16:09;;;;;;;;;;;;;;;13.33;61.72;95452.28;3596318;39;20410;-54
2021/05/22 08:18:37;;;;;;;;;;;;;;;13.27;63.19;95455.28;3602228;39;20281;-55
2021/05/22 08:21:06;;;;;;;;;;;;;;;13.14;63.32;95465.50;3603595;39;19952;-54
2021/05/22 08:23:33;;;;;;;;;;;;;;;13.00;63.37;95456.66;3600169;39;21095;-54
2021/05/22 08:26:01;;;;;;;;;;;;;;;12.90;63.51;95457.56;3582418;39;19946;-54
2021/05/22 08:28:49;;;;;;;;;;;;;;;12.80;63.98;95461.09;3595325;39;20292;-54
2021/05/22 08:31:16;;;;;;;;;;;;;;;12.72;63.00;95453.78;3600620;39;19936;-54
2021/05/22 08:33:44;;;;;;;;;;;;;;;12.64;64.21;95457.84;3600580;39;19936;-54
2021/05/22 08:36:12;;;;;;;;;;;;;;;12.62;64.29;95462.59;3601904;39;19943;-53
2021/05/22 08:38:40;;;;;;;;;;;;;;;12.58;65.08;95461.56;3600473;39;20311;-53
2021/05/22 08:41:08;;;;;;;;;;;;;;;12.60;65.47;95462.91;3584532;39;20898;-55
2021/05/22 08:43:35;;;;;;;;;;;;;;;12.60;63.98;95470.84;3604037;39;20159;-55
2021/05/22 08:46:07;;;;;;;;;;;;;;;12.61;65.04;95477.69;3602140;39;19947;-53
2021/05/22 08:48:36;;;;;;;;;;;;;;;12.61;64.07;95484.84;3604048;39;19940;-54
2021/05/22 08:51:07;;;;;;;;;;;;;;;12.54;63.43;95477.22;3591515;39;19947;-54
2021/05/22 08:53:36;;;;;;;;;;;;;;;12.49;64.64;95468.56;3603677;39;20437;-53
2021/05/22 08:56:04;;;;;;;;;;;;;;;12.51;64.58;95467.19;3603186;39;19943;-55
2021/05/22 08:58:32;;;;;;;;;;;;;;;12.56;65.05;95466.34;3601783;39;20205;-53
2021/05/22 09:01:01;;;;;;;;;;;;;;;12.58;64.10;95462.38;3584365;39;20281;-55
2021/05/22 09:03:29;;;;;;;;;;;;;;;12.61;64.72;95461.03;3601669;39;19936;-53
2021/05/22 09:05:56;;;;;;;;;;;;;;;12.61;64.84;95467.09;3603984;39;19935;-53
2021/05/22 09:08:24;;;;;;;;;;;;;;;12.61;65.50;95467.09;3602925;39;20401;-53
2021/05/22 09:10:53;;;;;;;;;;;;;;;12.60;65.77;95465.53;3601513;39;19939;-54
2021/05/22 09:13:21;;;;;;;;;;;;;;;12.61;64.73;95475.03;3603669;39;19936;-54
2021/05/22 09:15:54;;;;;;;;;;;;;;;12.63;65.99;95485.34;3603699;39;19948;-53
2021/05/22 09:18:23;;;;;;;;;;;;;;;12.60;65.45;95489.34;3593434;39;19936;-54
2021/05/22 09:20:58;;;;;;;;;;;;;;;12.59;64.69;95498.38;3600594;39;19943;-56
2021/05/22 09:23:28;;;;;;;;;;;;;;;12.58;66.31;95493.31;3604954;39;19946;-56
2021/05/22 09:25:56;;;;;;;;;;;;;;;12.53;64.97;95491.53;3604653;39;19948;-56
2021/05/22 09:28:28;;;;;;;;;;;;;;;12.52;65.13;95503.16;3605501;39;19936;-55
2021/05/22 09:30:57;;;;;;;;;;;;;;;12.51;65.88;95493.66;3603925;39;19951;-56
2021/05/22 09:33:25;;;;;;;;;;;;;;;12.51;66.27;95493.66;3603584;39;19950;-55
2021/05/22 09:35:57;;;;;;;;;;;;;;;12.54;66.14;95498.41;3603086;39;19950;-55
2021/05/22 09:38:34;;;;;;;;;;;;;;;12.57;66.68;95497.03;3595860;39;19940;-55
2021/05/22 09:41:19;;;;;;;;;;;;;;;12.58;66.87;95501.25;3605508;39;20325;-56
2021/05/22 09:44:05;;;;;;;;;;;;;;;12.55;66.65;95504.50;3594660;39;19963;-56
2021/05/22 09:46:56;;;;;;;;;;;;;;;12.50;66.81;95507.94;3579642;39;19948;-53
2021/05/22 09:49:24;;;;;;;;;;;;;;;12.47;67.53;95513.81;3606080;39;19943;-54
2021/05/22 09:51:55;;;;;;;;;;;;;;;12.45;68.20;95518.59;3603970;39;19935;-54
2021/05/22 09:54:41;;;;;;;;;;;;;;;12.43;68.26;95521.50;3605884;39;19942;-55
2021/05/22 09:57:09;;;;;;;;;;;;;;;12.36;68.66;95523.66;3593230;39;19989;-55
2021/05/22 09:59:37;;;;;;;;;;;;;;;12.30;69.00;95519.50;3604505;39;19935;-56
2021/05/22 10:02:05;;;;;;;;;;;;;;;12.26;69.95;95516.59;3603300;39;19931;-54
2021/05/22 10:04:32;;;;;;;;;;;;;;;12.22;69.15;95510.28;3596138;39;19936;-54
2021/05/22 10:07:00;;;;;;;;;;;;;;;12.22;69.67;95515.59;3604313;39;19969;-55
2021/05/22 10:09:28;;;;;;;;;;;;;;;12.22;71.02;95520.06;3601288;39;19944;-55
2021/05/22 10:12:09;;;;;;;;;;;;;;;12.20;68.90;95520.34;3605856;39;19936;-55
2021/05/22 10:14:39;;;;;;;;;;;;;;;12.15;70.88;95525.66;3606000;39;19967;-55
2021/05/22 10:17:08;;;;;;;;;;;;;;;12.17;69.93;95531.47;3605644;39;19944;-55
2021/05/22 10:19:37;;;;;;;;;;;;;;;12.16;71.08;95529.91;3595227;39;19940;-55
2021/05/22 10:22:06;;;;;;;;;;;;;;;12.15;73.59;95534.41;3595594;39;19946;-55
2021/05/22 10:24:34;;;;;;;;;;;;;;;12.22;73.07;95534.09;3604118;39;19982;-55
2021/05/22 10:27:01;;;;;;;;;;;;;;;12.22;73.86;95539.38;3584064;39;19943;-55
2021/05/22 10:29:29;;;;;;;;;;;;;;;12.20;73.66;95532.78;3592672;39;19961;-54
2021/05/22 10:31:57;;;;;;;;;;;;;;;12.22;73.75;95539.38;3593646;39;20244;-55
2021/05/22 10:34:26;;;;;;;;;;;;;;;12.28;74.78;95537.50;3604692;39;19939;-54
2021/05/22 10:36:59;;;;;;;;;;;;;;;12.34;75.12;95540.88;3606362;39;19955;-55
2021/05/22 10:39:40;;;;;;;;;;;;;;;12.43;73.67;95539.22;3602373;39;20327;-55
2021/05/22 10:42:08;;;;;;;;;;;;;;;12.38;71.49;95542.69;3605607;39;19943;-56
2021/05/22 10:44:39;;;;;;;;;;;;;;;12.27;73.38;95541.97;3593522;39;19940;-56
2021/05/22 10:47:17;;;;;;;;;;;;;;;12.29;74.53;95561.00;3605018;39;20480;-53
2021/05/22 10:49:57;;;;;;;;;;;;;;;12.26;72.99;95560.78;3592286;39;19965;-54
2021/05/22 10:52:25;;;;;;;;;;;;;;;12.22;73.82;95570.31;3580511;39;20300;-54
2021/05/22 10:54:59;;;;;;;;;;;;;;;12.22;74.03;95555.25;3603945;39;20407;-54
2021/05/22 10:57:27;;;;;;;;;;;;;;;12.28;73.85;95562.06;3595158;39;20623;-54
2021/05/22 11:00:19;;;;;;;;;;;;;;;12.27;73.92;95555.19;3599139;39;19936;-55
2021/05/22 11:02:50;;;;;;;;;;;;;;;12.38;74.73;95547.19;3590840;39;19942;-55
2021/05/22 11:05:21;;;;;;;;;;;;;;;12.39;74.95;95562.00;3604675;39;19950;-54
2021/05/22 11:07:49;;;;;;;;;;;;;;;12.30;73.73;95569.75;3605157;39;19948;-55
2021/05/22 11:11:01;;;;;;;;;;;;;;;12.20;73.52;95578.53;3596490;39;19952;-55
2021/05/22 11:13:28;;;;;;;;;;;;;;;12.17;74.30;95578.28;3571363;40;19945;-55
2021/05/22 11:15:57;;;;;;;;;;;;;;;12.18;74.81;95562.16;3568778;40;19940;-54
2021/05/22 11:18:26;;;;;;;;;;;;;;;12.22;74.16;95578.25;3582277;39;19950;-54
2021/05/22 11:21:14;;;;;;;;;;;;;;;12.24;74.26;95574.28;3593137;39;19951;-55
2021/05/22 11:23:57;;;;;;;;;;;;;;;12.30;72.90;95578.47;3591561;39;19939;-55
2021/05/22 11:26:48;;;;;;;;;;;;;;;12.28;74.42;95580.59;3599457;39;20192;-54
2021/05/22 11:29:16;;;;;;;;;;;;;;;12.33;75.10;95581.63;3602256;39;19985;-56
2021/05/22 11:31:44;;;;;;;;;;;;;;;12.44;74.81;95573.31;3599946;39;19961;-57
2021/05/22 11:34:20;;;;;;;;;;;;;;;12.56;73.56;95580.94;3602124;39;19942;-54
2021/05/22 11:37:07;;;;;;;;;;;;;;;12.70;72.59;95577.66;3600482;39;19931;-55
2021/05/22 11:39:45;;;;;;;;;;;;;;;12.70;72.29;95585.59;3589591;39;20344;-54
2021/05/22 11:42:32;;;;;;;;;;;;;;;12.72;73.70;95578.16;3586219;39;19936;-55
2021/05/22 11:45:00;;;;;;;;;;;;;;;12.71;72.03;95590.59;3592847;39;19943;-56
2021/05/22 11:47:32;;;;;;;;;;;;;;;12.64;72.64;95587.50;3584167;39;20441;-55
2021/05/22 11:50:01;;;;;;;;;;;;;;;12.64;71.75;95587.50;3596106;39;19942;-53
2021/05/22 11:52:30;;;;;;;;;;;;;;;12.63;71.80;95598.34;3602104;39;20281;-55
2021/05/22 11:54:59;;;;;;;;;;;;;;;12.60;73.97;95603.13;3598383;39;19948;-53
2021/05/22 11:57:26;;;;;;;;;;;;;;;12.50;72.30;95595.25;3600775;39;20220;-53
2021/05/22 11:59:54;;;;;;;;;;;;;;;12.54;73.04;95598.94;3603981;39;19950;-54
2021/05/22 12:02:37;;;;;;;;;;;;;;;12.59;70.82;95593.63;3603897;39;19936;-54
2021/05/22 12:05:07;;;;;;;;;;;;;;;12.66;70.11;95611.03;3600988;39;19943;-53
2021/05/22 12:07:47;;;;;;;;;;;;;;;12.79;71.12;95609.63;3602379;39;20278;-55
2021/05/22 12:10:16;;;;;;;;;;;;;;;12.95;68.57;95604.97;3605361;39;19947;-55
2021/05/22 12:12:43;;;;;;;;;;;;;;;13.08;68.51;95615.69;3602508;39;19936;-54
2021/05/22 12:15:24;;;;;;;;;;;;;;;13.23;69.42;95609.47;3603322;39;19939;-54
2021/05/22 12:17:54;;;;;;;;;;;;;;;13.43;70.76;95602.44;3602073;39;20035;-55
2021/05/22 12:20:23;;;;;;;;;;;;;;;13.62;71.04;95597.19;3603498;39;19950;-54
2021/05/22 12:22:51;;;;;;;;;;;;;;;13.76;68.18;95594.63;3601542;39;20643;-54
2021/05/22 12:25:18;;;;;;;;;;;;;;;13.94;68.33;95593.09;3594302;39;19977;-60
2021/05/22 12:27:46;;;;;;;;;;;;;;;14.14;66.64;95589.38;3604328;39;19941;-54
2021/05/22 12:30:15;;;;;;;;;;;;;;;14.37;63.81;95583.50;3603674;39;19942;-54
2021/05/22 12:32:42;;;;;;;;;;;;;;;14.59;63.60;95598.81;3595000;39;19944;-54
2021/05/22 12:35:10;;;;;;;;;;;;;;;14.59;61.37;95596.16;3602152;39;19979;-54
2021/05/22 12:37:38;;;;;;;;;;;;;;;14.58;61.91;95595.38;3603012;39;19935;-54
2021/05/22 12:40:07;;;;;;;;;;;;;;;14.74;59.95;95592.53;3603666;39;19944;-54
2021/05/22 12:42:36;;;;;;;;;;;;;;;14.98;59.37;95597.69;3603573;39;19944;-54
2021/05/22 12:45:07;;;;;;;;;;;;;;;15.14;58.68;95587.59;3589214;39;19963;-54
2021/05/22 12:47:35;;;;;;;;;;;;;;;15.46;57.06;95577.19;3598869;39;19949;-54
2021/05/22 12:50:06;;;;;;;;;;;;;;;15.72;56.13;95577.50;3588879;39;19954;-54
2021/05/22 12:52:50;;;;;;;;;;;;;;;15.91;53.98;95580.06;3599172;39;19948;-54
2021/05/22 12:55:30;;;;;;;;;;;;;;;15.95;53.51;95589.00;3589525;39;19944;-54
2021/05/22 12:57:59;;;;;;;;;;;;;;;15.96;52.97;95585.28;3602730;39;20307;-54
2021/05/22 13:00:27;;;;;;;;;;;;;;;15.90;54.06;95591.78;3593367;39;19939;-55